sensor_id;sensor_type;location;lat;lon;timestamp;temperature;humidity
58983;DHT22;44771;49.982;8.560;2022-07-15T00:01:11;12.60;99.90
58983;DHT22;44771;49.982;8.560;2022-07-15T00:06:15;12.50;99.90
58983;DHT22;44771;49.982;8.560;2022-07-15T00:11:17;12.50;99.90
58983;DHT22;44771;49.982;8.560;2022-07-15T00:16:20;12.50;99.90
58983;DHT22;44771;49.982;8.560;2022-07-15T00:21:27;12.50;99.90
58983;DHT22;44771;49.982;8.560;2022-07-15T00:26:29;12.40;99.90
58983;DHT22;44771;49.982;8.560;2022-07-15T00:31:37;12.30;99.90
58983;DHT22;44771;49.982;8.560;2022-07-15T00:36:40;12.30;99.90
58983;DHT22;44771;49.982;8.560;2022-07-15T00:41:43;12.30;99.90
58983;DHT22;44771;49.982;8.560;2022-07-15T00:46:45;12.10;99.90
58983;DHT22;44771;49.982;8.560;2022-07-15T00:51:50;12.00;99.90
58983;DHT22;44771;49.982;8.560;2022-07-15T00:56:54;11.90;99.90
58983;DHT22;44771;49.982;8.560;2022-07-15T01:01:56;11.60;99.90
58983;DHT22;44771;49.982;8.560;2022-07-15T01:07:00;11.40;99.90
58983;DHT22;44771;49.982;8.560;2022-07-15T01:12:02;11.30;99.90
58983;DHT22;44771;49.982;8.560;2022-07-15T01:17:08;11.20;99.90
58983;DHT22;44771;49.982;8.560;2022-07-15T01:22:11;11.20;99.90
58983;DHT22;44771;49.982;8.560;2022-07-15T01:27:13;11.00;99.90
58983;DHT22;44771;49.982;8.560;2022-07-15T01:32:15;10.90;99.90
58983;DHT22;44771;49.982;8.560;2022-07-15T01:37:19;10.80;99.90
58983;DHT22;44771;49.982;8.560;2022-07-15T01:42:21;10.90;99.90
58983;DHT22;44771;49.982;8.560;2022-07-15T01:47:22;10.80;99.90
58983;DHT22;44771;49.982;8.560;2022-07-15T01:52:26;10.90;99.90
58983;DHT22;44771;49.982;8.560;2022-07-15T01:57:27;10.70;99.90
58983;DHT22;44771;49.982;8.560;2022-07-15T02:02:29;10.50;99.90
58983;DHT22;44771;49.982;8.560;2022-07-15T02:07:33;10.50;99.90
58983;DHT22;44771;49.982;8.560;2022-07-15T02:12:34;10.30;99.90
58983;DHT22;44771;49.982;8.560;2022-07-15T02:17:38;10.20;99.90
58983;DHT22;44771;49.982;8.560;2022-07-15T02:22:42;10.10;99.90
58983;DHT22;44771;49.982;8.560;2022-07-15T02:27:43;9.90;99.90
58983;DHT22;44771;49.982;8.560;2022-07-15T02:32:45;9.90;99.90
58983;DHT22;44771;49.982;8.560;2022-07-15T02:37:48;9.90;99.90
58983;DHT22;44771;49.982;8.560;2022-07-15T02:42:52;9.80;99.90
58983;DHT22;44771;49.982;8.560;2022-07-15T02:47:54;9.70;99.90
58983;DHT22;44771;49.982;8.560;2022-07-15T02:52:58;9.60;99.90
58983;DHT22;44771;49.982;8.560;2022-07-15T02:58:00;9.70;99.90
58983;DHT22;44771;49.982;8.560;2022-07-15T03:03:01;9.80;99.90
58983;DHT22;44771;49.982;8.560;2022-07-15T03:08:05;9.80;99.90
58983;DHT22;44771;49.982;8.560;2022-07-15T03:13:07;9.80;99.90
58983;DHT22;44771;49.982;8.560;2022-07-15T03:18:09;9.80;99.90
58983;DHT22;44771;49.982;8.560;2022-07-15T03:23:12;9.80;99.90
58983;DHT22;44771;49.982;8.560;2022-07-15T03:28:14;9.80;99.90
58983;DHT22;44771;49.982;8.560;2022-07-15T03:33:16;9.80;99.90
58983;DHT22;44771;49.982;8.560;2022-07-15T03:38:19;10.00;99.90
58983;DHT22;44771;49.982;8.560;2022-07-15T03:43:21;10.00;99.90
58983;DHT22;44771;49.982;8.560;2022-07-15T03:48:23;9.80;99.90
58983;DHT22;44771;49.982;8.560;2022-07-15T03:53:26;9.60;99.90
58983;DHT22;44771;49.982;8.560;2022-07-15T03:58:28;9.60;99.90
58983;DHT22;44771;49.982;8.560;2022-07-15T04:03:30;9.70;99.90
58983;DHT22;44771;49.982;8.560;2022-07-15T04:08:33;9.60;99.90
58983;DHT22;44771;49.982;8.560;2022-07-15T04:13:35;9.50;99.90
58983;DHT22;44771;49.982;8.560;2022-07-15T04:18:37;9.40;99.90
58983;DHT22;44771;49.982;8.560;2022-07-15T04:23:41;9.50;99.90
58983;DHT22;44771;49.982;8.560;2022-07-15T04:28:42;9.70;99.90
58983;DHT22;44771;49.982;8.560;2022-07-15T04:33:44;9.80;99.90
58983;DHT22;44771;49.982;8.560;2022-07-15T04:38:48;9.90;99.90
58983;DHT22;44771;49.982;8.560;2022-07-15T04:43:50;10.10;99.90
58983;DHT22;44771;49.982;8.560;2022-07-15T04:48:51;10.10;99.90
58983;DHT22;44771;49.982;8.560;2022-07-15T04:53:55;10.30;99.90
58983;DHT22;44771;49.982;8.560;2022-07-15T04:59:05;10.60;99.90
58983;DHT22;44771;49.982;8.560;2022-07-15T05:04:11;10.90;99.90
58983;DHT22;44771;49.982;8.560;2022-07-15T05:09:14;11.00;99.90
58983;DHT22;44771;49.982;8.560;2022-07-15T05:14:16;11.30;99.90
58983;DHT22;44771;49.982;8.560;2022-07-15T05:19:19;11.70;99.90
58983;DHT22;44771;49.982;8.560;2022-07-15T05:24:28;12.20;99.90
58983;DHT22;44771;49.982;8.560;2022-07-15T05:29:31;12.70;99.90
58983;DHT22;44771;49.982;8.560;2022-07-15T05:34:35;13.10;99.90
58983;DHT22;44771;49.982;8.560;2022-07-15T05:39:38;13.60;99.90
58983;DHT22;44771;49.982;8.560;2022-07-15T05:44:40;14.10;99.90
58983;DHT22;44771;49.982;8.560;2022-07-15T05:49:42;14.60;99.90
58983;DHT22;44771;49.982;8.560;2022-07-15T05:54:45;15.00;99.90
58983;DHT22;44771;49.982;8.560;2022-07-15T05:59:47;15.30;99.90
58983;DHT22;44771;49.982;8.560;2022-07-15T06:04:49;15.60;99.90
58983;DHT22;44771;49.982;8.560;2022-07-15T06:09:52;16.10;99.90
58983;DHT22;44771;49.982;8.560;2022-07-15T06:14:54;16.50;99.90
58983;DHT22;44771;49.982;8.560;2022-07-15T06:19:56;16.70;99.90
58983;DHT22;44771;49.982;8.560;2022-07-15T06:24:59;16.90;99.90
58983;DHT22;44771;49.982;8.560;2022-07-15T06:30:01;16.90;99.90
58983;DHT22;44771;49.982;8.560;2022-07-15T06:35:03;17.00;98.90
58983;DHT22;44771;49.982;8.560;2022-07-15T06:40:08;17.10;98.90
58983;DHT22;44771;49.982;8.560;2022-07-15T06:45:10;17.10;99.30
58983;DHT22;44771;49.982;8.560;2022-07-15T06:50:12;17.60;98.90
58983;DHT22;44771;49.982;8.560;2022-07-15T06:55:15;17.80;97.00
58983;DHT22;44771;49.982;8.560;2022-07-15T07:00:17;18.00;97.20
58983;DHT22;44771;49.982;8.560;2022-07-15T07:05:19;18.00;98.40
58983;DHT22;44771;49.982;8.560;2022-07-15T07:10:25;18.30;98.00
58983;DHT22;44771;49.982;8.560;2022-07-15T07:15:27;18.50;95.50
58983;DHT22;44771;49.982;8.560;2022-07-15T07:20:29;18.60;95.00
58983;DHT22;44771;49.982;8.560;2022-07-15T07:25:32;18.50;94.90
58983;DHT22;44771;49.982;8.560;2022-07-15T07:30:37;18.50;94.90
58983;DHT22;44771;49.982;8.560;2022-07-15T07:35:41;18.60;96.10
58983;DHT22;44771;49.982;8.560;2022-07-15T07:40:44;18.60;95.40
58983;DHT22;44771;49.982;8.560;2022-07-15T07:45:47;18.80;95.60
58983;DHT22;44771;49.982;8.560;2022-07-15T07:50:49;18.90;94.90
58983;DHT22;44771;49.982;8.560;2022-07-15T07:55:52;19.10;94.40
58983;DHT22;44771;49.982;8.560;2022-07-15T08:00:54;19.10;92.20
58983;DHT22;44771;49.982;8.560;2022-07-15T08:05:59;18.90;92.10
58983;DHT22;44771;49.982;8.560;2022-07-15T08:11:02;18.80;92.30
58983;DHT22;44771;49.982;8.560;2022-07-15T08:16:07;18.90;93.60
58983;DHT22;44771;49.982;8.560;2022-07-15T08:21:21;19.00;92.90
58983;DHT22;44771;49.982;8.560;2022-07-15T08:26:24;19.10;92.10
58983;DHT22;44771;49.982;8.560;2022-07-15T08:31:26;19.50;93.40
58983;DHT22;44771;49.982;8.560;2022-07-15T08:36:28;19.80;89.30
58983;DHT22;44771;49.982;8.560;2022-07-15T08:41:35;20.40;85.80
58983;DHT22;44771;49.982;8.560;2022-07-15T08:46:38;20.70;85.20
58983;DHT22;44771;49.982;8.560;2022-07-15T08:51:44;20.60;83.50
58983;DHT22;44771;49.982;8.560;2022-07-15T08:56:47;20.30;85.00
58983;DHT22;44771;49.982;8.560;2022-07-15T09:01:49;20.60;84.20
58983;DHT22;44771;49.982;8.560;2022-07-15T09:06:51;20.80;79.90
58983;DHT22;44771;49.982;8.560;2022-07-15T09:11:56;20.70;81.00
58983;DHT22;44771;49.982;8.560;2022-07-15T09:17:19;20.40;83.20
58983;DHT22;44771;49.982;8.560;2022-07-15T09:22:26;19.90;81.50
58983;DHT22;44771;49.982;8.560;2022-07-15T09:28:34;19.50;85.50
58983;DHT22;44771;49.982;8.560;2022-07-15T09:33:59;19.30;85.40
58983;DHT22;44771;49.982;8.560;2022-07-15T09:44:44;20.40;84.00
58983;DHT22;44771;49.982;8.560;2022-07-15T09:49:46;21.40;80.10
58983;DHT22;44771;49.982;8.560;2022-07-15T09:54:49;22.30;72.40
58983;DHT22;44771;49.982;8.560;2022-07-15T10:00:13;22.70;74.70
58983;DHT22;44771;49.982;8.560;2022-07-15T10:05:15;22.20;72.20
58983;DHT22;44771;49.982;8.560;2022-07-15T10:10:17;21.90;69.60
58983;DHT22;44771;49.982;8.560;2022-07-15T10:21:26;20.70;75.60
58983;DHT22;44771;49.982;8.560;2022-07-15T10:32:15;20.60;74.70
58983;DHT22;44771;49.982;8.560;2022-07-15T10:37:20;21.50;75.60
58983;DHT22;44771;49.982;8.560;2022-07-15T10:42:22;22.90;67.00
58983;DHT22;44771;49.982;8.560;2022-07-15T11:47:04;24.30;56.20
58983;DHT22;44771;49.982;8.560;2022-07-15T12:03:14;24.50;53.90
58983;DHT22;44771;49.982;8.560;2022-07-15T12:08:32;25.00;52.70
58983;DHT22;44771;49.982;8.560;2022-07-15T12:13:41;24.00;55.00
58983;DHT22;44771;49.982;8.560;2022-07-15T12:18:46;23.40;56.00
58983;DHT22;44771;49.982;8.560;2022-07-15T12:24:09;24.00;54.30
58983;DHT22;44771;49.982;8.560;2022-07-15T12:29:12;23.60;54.90
58983;DHT22;44771;49.982;8.560;2022-07-15T12:34:15;23.30;57.00
58983;DHT22;44771;49.982;8.560;2022-07-15T12:39:17;24.40;56.30
58983;DHT22;44771;49.982;8.560;2022-07-15T12:44:22;25.30;52.90
58983;DHT22;44771;49.982;8.560;2022-07-15T12:49:43;25.80;50.20
58983;DHT22;44771;49.982;8.560;2022-07-15T13:06:12;24.40;49.30
58983;DHT22;44771;49.982;8.560;2022-07-15T13:17:11;25.00;51.10
58983;DHT22;44771;49.982;8.560;2022-07-15T13:22:23;25.00;49.70
58983;DHT22;44771;49.982;8.560;2022-07-15T13:27:34;24.10;52.00
58983;DHT22;44771;49.982;8.560;2022-07-15T13:32:36;24.40;51.10
58983;DHT22;44771;49.982;8.560;2022-07-15T13:38:03;25.00;50.30
58983;DHT22;44771;49.982;8.560;2022-07-15T13:43:20;25.30;50.50
58983;DHT22;44771;49.982;8.560;2022-07-15T13:54:05;25.70;48.50
58983;DHT22;44771;49.982;8.560;2022-07-15T13:59:11;25.60;47.80
58983;DHT22;44771;49.982;8.560;2022-07-15T14:04:13;26.10;47.40
58983;DHT22;44771;49.982;8.560;2022-07-15T14:09:39;25.90;47.00
58983;DHT22;44771;49.982;8.560;2022-07-15T14:15:07;26.00;45.80
58983;DHT22;44771;49.982;8.560;2022-07-15T14:20:13;25.60;47.50
58983;DHT22;44771;49.982;8.560;2022-07-15T14:25:22;25.60;45.30
58983;DHT22;44771;49.982;8.560;2022-07-15T14:36:06;25.80;47.00
58983;DHT22;44771;49.982;8.560;2022-07-15T14:49:20;26.40;46.20
58983;DHT22;44771;49.982;8.560;2022-07-15T14:52:30;25.80;45.10
58983;DHT22;44771;49.982;8.560;2022-07-15T14:57:36;25.80;44.80
58983;DHT22;44771;49.982;8.560;2022-07-15T15:02:39;25.50;44.90
58983;DHT22;44771;49.982;8.560;2022-07-15T15:07:41;24.90;45.00
58983;DHT22;44771;49.982;8.560;2022-07-15T15:13:03;24.90;46.80
58983;DHT22;44771;49.982;8.560;2022-07-15T15:18:07;24.90;44.70
58983;DHT22;44771;49.982;8.560;2022-07-15T15:29:05;25.40;43.80
58983;DHT22;44771;49.982;8.560;2022-07-15T15:34:08;25.40;43.80
58983;DHT22;44771;49.982;8.560;2022-07-15T15:39:32;25.40;43.00
58983;DHT22;44771;49.982;8.560;2022-07-15T15:44:56;25.50;44.30
58983;DHT22;44771;49.982;8.560;2022-07-15T15:50:06;25.40;44.60
58983;DHT22;44771;49.982;8.560;2022-07-15T15:55:08;25.40;45.10
58983;DHT22;44771;49.982;8.560;2022-07-15T16:00:11;25.40;44.70
58983;DHT22;44771;49.982;8.560;2022-07-15T16:05:17;25.40;43.40
58983;DHT22;44771;49.982;8.560;2022-07-15T16:10:20;25.00;43.40
58983;DHT22;44771;49.982;8.560;2022-07-15T16:15:22;25.00;46.00
58983;DHT22;44771;49.982;8.560;2022-07-15T16:20:25;25.00;43.80
58983;DHT22;44771;49.982;8.560;2022-07-15T16:25:33;24.70;43.40
58983;DHT22;44771;49.982;8.560;2022-07-15T16:30:45;24.40;44.30
58983;DHT22;44771;49.982;8.560;2022-07-15T16:35:57;24.30;44.70
58983;DHT22;44771;49.982;8.560;2022-07-15T16:41:17;24.20;44.40
58983;DHT22;44771;49.982;8.560;2022-07-15T16:46:27;24.00;44.30
58983;DHT22;44771;49.982;8.560;2022-07-15T16:51:49;23.90;44.80
58983;DHT22;44771;49.982;8.560;2022-07-15T16:56:56;23.70;46.40
58983;DHT22;44771;49.982;8.560;2022-07-15T17:02:14;23.50;45.40
58983;DHT22;44771;49.982;8.560;2022-07-15T17:07:28;23.30;46.10
58983;DHT22;44771;49.982;8.560;2022-07-15T17:12:30;23.10;46.60
58983;DHT22;44771;49.982;8.560;2022-07-15T17:17:34;22.90;46.50
58983;DHT22;44771;49.982;8.560;2022-07-15T17:22:56;22.80;46.40
58983;DHT22;44771;49.982;8.560;2022-07-15T17:28:03;22.70;48.50
58983;DHT22;44771;49.982;8.560;2022-07-15T17:45:02;22.10;50.90
58983;DHT22;44771;49.982;8.560;2022-07-15T17:50:10;21.90;48.60
58983;DHT22;44771;49.982;8.560;2022-07-15T17:55:13;21.70;47.70
58983;DHT22;44771;49.982;8.560;2022-07-15T18:00:17;21.60;48.10
58983;DHT22;44771;49.982;8.560;2022-07-15T18:05:18;21.50;48.70
58983;DHT22;44771;49.982;8.560;2022-07-15T18:10:20;21.40;50.90
58983;DHT22;44771;49.982;8.560;2022-07-15T18:15:26;21.20;50.40
58983;DHT22;44771;49.982;8.560;2022-07-15T18:20:28;21.10;50.20
58983;DHT22;44771;49.982;8.560;2022-07-15T18:25:30;20.80;51.40
58983;DHT22;44771;49.982;8.560;2022-07-15T18:30:59;20.40;51.80
58983;DHT22;44771;49.982;8.560;2022-07-15T18:36:04;20.10;52.70
58983;DHT22;44771;49.982;8.560;2022-07-15T18:41:14;19.70;55.70
58983;DHT22;44771;49.982;8.560;2022-07-15T18:46:27;19.40;57.70
58983;DHT22;44771;49.982;8.560;2022-07-15T18:51:33;19.30;57.20
58983;DHT22;44771;49.982;8.560;2022-07-15T18:56:39;19.00;58.20
58983;DHT22;44771;49.982;8.560;2022-07-15T19:07:21;18.30;61.10
58983;DHT22;44771;49.982;8.560;2022-07-15T19:12:30;18.10;62.10
58983;DHT22;44771;49.982;8.560;2022-07-15T19:17:39;17.90;62.70
58983;DHT22;44771;49.982;8.560;2022-07-15T19:28:09;17.70;62.90
58983;DHT22;44771;49.982;8.560;2022-07-15T19:33:13;17.50;63.80
58983;DHT22;44771;49.982;8.560;2022-07-15T19:38:15;17.40;63.70
58983;DHT22;44771;49.982;8.560;2022-07-15T19:43:19;17.20;63.70
58983;DHT22;44771;49.982;8.560;2022-07-15T19:48:22;17.10;64.60
58983;DHT22;44771;49.982;8.560;2022-07-15T19:53:27;16.90;65.30
58983;DHT22;44771;49.982;8.560;2022-07-15T19:58:29;16.70;65.90
58983;DHT22;44771;49.982;8.560;2022-07-15T20:03:32;16.50;67.10
58983;DHT22;44771;49.982;8.560;2022-07-15T20:08:34;16.40;68.00
58983;DHT22;44771;49.982;8.560;2022-07-15T20:13:35;16.20;68.30
58983;DHT22;44771;49.982;8.560;2022-07-15T20:18:39;16.00;68.80
58983;DHT22;44771;49.982;8.560;2022-07-15T20:23:45;15.80;69.70
58983;DHT22;44771;49.982;8.560;2022-07-15T20:28:47;15.70;69.20
58983;DHT22;44771;49.982;8.560;2022-07-15T20:33:50;15.50;70.00
58983;DHT22;44771;49.982;8.560;2022-07-15T20:38:53;15.20;72.30
58983;DHT22;44771;49.982;8.560;2022-07-15T20:43:58;15.10;72.90
58983;DHT22;44771;49.982;8.560;2022-07-15T20:49:01;15.10;73.00
58983;DHT22;44771;49.982;8.560;2022-07-15T20:54:04;14.90;73.70
58983;DHT22;44771;49.982;8.560;2022-07-15T20:59:06;14.80;73.40
58983;DHT22;44771;49.982;8.560;2022-07-15T21:04:11;14.50;75.80
58983;DHT22;44771;49.982;8.560;2022-07-15T21:09:13;14.40;77.70
58983;DHT22;44771;49.982;8.560;2022-07-15T21:14:15;14.40;80.20
58983;DHT22;44771;49.982;8.560;2022-07-15T21:19:52;14.30;82.00
58983;DHT22;44771;49.982;8.560;2022-07-15T21:24:57;14.30;84.00
58983;DHT22;44771;49.982;8.560;2022-07-15T21:29:59;14.10;84.30
58983;DHT22;44771;49.982;8.560;2022-07-15T21:35:05;14.00;87.20
58983;DHT22;44771;49.982;8.560;2022-07-15T21:40:15;13.80;86.70
58983;DHT22;44771;49.982;8.560;2022-07-15T21:45:31;13.50;89.00
58983;DHT22;44771;49.982;8.560;2022-07-15T21:50:40;13.20;91.10
58983;DHT22;44771;49.982;8.560;2022-07-15T21:55:45;12.90;93.50
58983;DHT22;44771;49.982;8.560;2022-07-15T22:00:47;12.80;95.40
58983;DHT22;44771;49.982;8.560;2022-07-15T22:05:59;12.70;96.40
58983;DHT22;44771;49.982;8.560;2022-07-15T22:11:07;12.50;98.00
58983;DHT22;44771;49.982;8.560;2022-07-15T22:16:12;12.40;98.70
58983;DHT22;44771;49.982;8.560;2022-07-15T22:21:15;12.20;99.00
58983;DHT22;44771;49.982;8.560;2022-07-15T22:26:20;12.20;99.60
58983;DHT22;44771;49.982;8.560;2022-07-15T22:31:24;12.00;99.90
58983;DHT22;44771;49.982;8.560;2022-07-15T22:36:28;11.90;99.90
58983;DHT22;44771;49.982;8.560;2022-07-15T22:41:30;11.60;99.90
58983;DHT22;44771;49.982;8.560;2022-07-15T22:46:34;11.40;99.90
58983;DHT22;44771;49.982;8.560;2022-07-15T22:51:42;11.40;99.90
58983;DHT22;44771;49.982;8.560;2022-07-15T22:56:46;11.40;99.90
58983;DHT22;44771;49.982;8.560;2022-07-15T23:01:57;11.30;99.90
58983;DHT22;44771;49.982;8.560;2022-07-15T23:07:01;11.20;99.90
58983;DHT22;44771;49.982;8.560;2022-07-15T23:12:03;11.00;99.90
58983;DHT22;44771;49.982;8.560;2022-07-15T23:17:06;10.90;99.90
58983;DHT22;44771;49.982;8.560;2022-07-15T23:22:09;10.80;99.90
58983;DHT22;44771;49.982;8.560;2022-07-15T23:27:11;10.70;99.90
58983;DHT22;44771;49.982;8.560;2022-07-15T23:32:13;10.70;99.90
58983;DHT22;44771;49.982;8.560;2022-07-15T23:37:38;10.50;99.90
58983;DHT22;44771;49.982;8.560;2022-07-15T23:42:41;10.40;99.90
58983;DHT22;44771;49.982;8.560;2022-07-15T23:47:43;10.30;99.90
58983;DHT22;44771;49.982;8.560;2022-07-15T23:52:46;10.10;99.90
58983;DHT22;44771;49.982;8.560;2022-07-15T23:57:48;10.20;99.90
